Manawanui Hmnzs — ZMLR — position and weather

sailwx.info

Track history (hours):
 
Tides and Currents Weather Stations Pressure Air Temp Water Temp Dewpoint Dewpoint Depression Visibility Wind Speed Wind Dir Waves Ship Positions

Manawanui Hmnzs

Last reported at 2014-Oct-17 00:24 UTC. Time now 2014-Oct-30 15:56 UTC.
Position S 36°50' E 174°47'.
Warning: this ship's position is 13 days out of date.

MMSI: 512000300.

Date/timePositionNaut miles runAvg speedWind from/ knotsBaromVisibWave heightAir tempDewpointWater temp
2014-Oct-17 00:24S 36°50' E 174°47'4 5.1
2014-Oct-16 23:33S 36°46' E 174°49'1 0.0
2014-Oct-16 09:12S 36°46' E 174°49'4 6.1
2014-Oct-16 08:31S 36°50' E 174°47'5 4.8
2014-Oct-16 07:33S 36°46' E 174°49'4 4.2
2014-Oct-16 06:34S 36°50' E 174°49'3 0.2
2014-Oct-15 09:34S 36°47' E 174°48'3 3.0
2014-Oct-15 08:26S 36°50' E 174°49'24 7.8
2014-Oct-15 05:24S 36°26' E 174°47'1 1.3
2014-Oct-15 04:33S 36°26' E 174°49'0 0.0
2014-Oct-15 03:33S 36°26' E 174°49'0 0.0
2014-Oct-15 02:33S 36°26' E 174°49'0 0.0
2014-Oct-15 01:33S 36°26' E 174°49'0 0.0
2014-Oct-15 00:33S 36°26' E 174°49'0 0.0
2014-Oct-14 23:33S 36°26' E 174°49'0 0.0
2014-Oct-14 22:33S 36°26' E 174°49'1 0.8
2014-Oct-14 21:33S 36°26' E 174°49'2 1.5
2014-Oct-14 20:28S 36°24' E 174°48'8 8.7
2014-Oct-14 19:33S 36°32' E 174°49'6 6.5
2014-Oct-14 18:33S 36°25' E 174°49'20 1.2
2014-Oct-14 01:33S 36°46' E 174°49'5 4.6
2014-Oct-14 00:34S 36°50' E 174°48'7 6.8
2014-Oct-13 23:33S 36°44' E 174°52'4 0.2
2014-Oct-12 21:34S 36°48' E 174°49'  
2014-Oct-09 22:09S 36°50' E 174°47'2 3.9
2014-Oct-09 21:33S 36°49' E 174°50'3 0.1
2014-Oct-08 07:30S 36°46' E 174°49'4 4.4
2014-Oct-08 06:33S 36°50' E 174°48'8 8.1
2014-Oct-08 05:33S 36°42' E 174°48'9 8.8
2014-Oct-08 04:34S 36°34' E 174°51'5 4.9
2014-Oct-08 03:33S 36°32' E 174°45'4 4.3
2014-Oct-08 02:33S 36°29' E 174°49'4 3.8
2014-Oct-08 01:33S 36°25' E 174°48'1 1.0
2014-Oct-08 00:34S 36°25' E 174°49'6 5.6
2014-Oct-07 23:33S 36°30' E 174°50'7 6.4
2014-Oct-07 22:27S 36°23' E 174°52'5 5.5
2014-Oct-07 21:33S 36°27' E 174°48'3 3.3
2014-Oct-07 20:33S 36°24' E 174°49'18 1.8
2014-Oct-07 10:33S 36°41' E 174°54'9 8.7
2014-Oct-07 09:33S 36°49' E 174°50'2 1.7
2014-Oct-07 08:33S 36°48' E 174°49'3 2.8
2014-Oct-07 07:33S 36°50' E 174°48'8 7.7
2014-Oct-07 06:34S 36°43' E 174°51'9 9.4
2014-Oct-07 05:33S 36°34' E 174°51'5 4.5
2014-Oct-07 04:33S 36°33' E 174°45'0 0.2
2014-Oct-07 03:33S 36°33' E 174°45'2 2.5
2014-Oct-07 02:33S 36°31' E 174°46'4 3.7
2014-Oct-07 01:33S 36°27' E 174°47'5 5.3
2014-Oct-07 00:33S 36°23' E 174°52'  
Track history (hours):
 
Tides and Currents Weather Stations Pressure Air Temp Water Temp Dewpoint Dewpoint Depression Visibility Wind Speed Wind Dir Waves Ship Positions

Manawanui Hmnzs

Last reported at 2014-Oct-17 00:24 UTC. Time now 2014-Oct-30 15:56 UTC.
Position S 36°50' E 174°47'.
Warning: this ship's position is 13 days out of date.

MMSI: 512000300.

Date/timePositionNaut miles runAvg speedWind from/ knotsBaromVisibWave heightAir tempDewpointWater temp
2014-Oct-17 00:24S 36°50' E 174°47'4 5.1
2014-Oct-16 23:33S 36°46' E 174°49'1 0.0
2014-Oct-16 09:12S 36°46' E 174°49'4 6.1
2014-Oct-16 08:31S 36°50' E 174°47'5 4.8
2014-Oct-16 07:33S 36°46' E 174°49'4 4.2
2014-Oct-16 06:34S 36°50' E 174°49'3 0.2
2014-Oct-15 09:34S 36°47' E 174°48'3 3.0
2014-Oct-15 08:26S 36°50' E 174°49'24 7.8
2014-Oct-15 05:24S 36°26' E 174°47'1 1.3
2014-Oct-15 04:33S 36°26' E 174°49'0 0.0
2014-Oct-15 03:33S 36°26' E 174°49'0 0.0
2014-Oct-15 02:33S 36°26' E 174°49'0 0.0
2014-Oct-15 01:33S 36°26' E 174°49'0 0.0
2014-Oct-15 00:33S 36°26' E 174°49'0 0.0
2014-Oct-14 23:33S 36°26' E 174°49'0 0.0
2014-Oct-14 22:33S 36°26' E 174°49'1 0.8
2014-Oct-14 21:33S 36°26' E 174°49'2 1.5
2014-Oct-14 20:28S 36°24' E 174°48'8 8.7
2014-Oct-14 19:33S 36°32' E 174°49'6 6.5
2014-Oct-14 18:33S 36°25' E 174°49'20 1.2
2014-Oct-14 01:33S 36°46' E 174°49'5 4.6
2014-Oct-14 00:34S 36°50' E 174°48'7 6.8
2014-Oct-13 23:33S 36°44' E 174°52'4 0.2
2014-Oct-12 21:34S 36°48' E 174°49'  
2014-Oct-09 22:09S 36°50' E 174°47'2 3.9
2014-Oct-09 21:33S 36°49' E 174°50'3 0.1
2014-Oct-08 07:30S 36°46' E 174°49'4 4.4
2014-Oct-08 06:33S 36°50' E 174°48'8 8.1
2014-Oct-08 05:33S 36°42' E 174°48'9 8.8
2014-Oct-08 04:34S 36°34' E 174°51'5 4.9
2014-Oct-08 03:33S 36°32' E 174°45'4 4.3
2014-Oct-08 02:33S 36°29' E 174°49'4 3.8
2014-Oct-08 01:33S 36°25' E 174°48'1 1.0
2014-Oct-08 00:34S 36°25' E 174°49'6 5.6
2014-Oct-07 23:33S 36°30' E 174°50'7 6.4
2014-Oct-07 22:27S 36°23' E 174°52'5 5.5
2014-Oct-07 21:33S 36°27' E 174°48'3 3.3
2014-Oct-07 20:33S 36°24' E 174°49'18 1.8
2014-Oct-07 10:33S 36°41' E 174°54'9 8.7
2014-Oct-07 09:33S 36°49' E 174°50'2 1.7
2014-Oct-07 08:33S 36°48' E 174°49'3 2.8
2014-Oct-07 07:33S 36°50' E 174°48'8 7.7
2014-Oct-07 06:34S 36°43' E 174°51'9 9.4
2014-Oct-07 05:33S 36°34' E 174°51'5 4.5
2014-Oct-07 04:33S 36°33' E 174°45'0 0.2
2014-Oct-07 03:33S 36°33' E 174°45'2 2.5
2014-Oct-07 02:33S 36°31' E 174°46'4 3.7
2014-Oct-07 01:33S 36°27' E 174°47'5 5.3
2014-Oct-07 00:33S 36°23' E 174°52'  

Dump ship's entire track history